Time;durP1;ratioP1;P1;durP2;ratioP2;P2;SDS_P1;SDS_P2;PMS_P1;PMS_P2;Temp;Humidity;BMP_temperature;BMP_pressure;BME280_temperature;BME280_humidity;BME280_pressure;Samples;Min_cycle;Max_cycle;Signal;HPM_P1;HPM_P2
2024/03/01 00:01:22;;;;;;;20.10;2.50;;;;;;;;;;5013016;28;20053;-78
2024/03/01 00:03:49;;;;;;;16.27;2.90;;;;;;;;;;5013738;28;20056;-78
2024/03/01 00:06:16;;;;;;;21.65;3.17;;;;;;;;;;5013678;28;20042;-78
2024/03/01 00:08:42;;;;;;;20.90;3.33;;;;;;;;;;5013086;28;20046;-77
2024/03/01 00:11:09;;;;;;;16.77;2.95;;;;;;;;;;5012717;28;20499;-78
2024/03/01 00:13:36;;;;;;;23.10;2.70;;;;;;;;;;5013103;28;20057;-78
2024/03/01 00:16:03;;;;;;;20.40;3.25;;;;;;;;;;5012030;28;20069;-78
2024/03/01 00:18:30;;;;;;;19.10;2.45;;;;;;;;;;5009266;28;20408;-78
2024/03/01 00:20:57;;;;;;;21.40;2.40;;;;;;;;;;5011079;28;20100;-78
2024/03/01 00:23:26;;;;;;;27.08;3.35;;;;;;;;;;5009803;28;20133;-78
2024/03/01 00:25:54;;;;;;;26.70;4.25;;;;;;;;;;5011631;28;20069;-78
2024/03/01 00:28:21;;;;;;;27.40;3.38;;;;;;;;;;5011642;28;20472;-78
2024/03/01 00:30:47;;;;;;;27.50;2.72;;;;;;;;;;5012791;28;20092;-78
2024/03/01 00:33:14;;;;;;;19.08;2.50;;;;;;;;;;5013620;28;20129;-78
2024/03/01 00:35:41;;;;;;;23.60;2.80;;;;;;;;;;5013928;28;20554;-78
2024/03/01 00:38:08;;;;;;;23.27;3.72;;;;;;;;;;5013424;28;20050;-78
2024/03/01 00:40:34;;;;;;;23.63;2.88;;;;;;;;;;5012587;28;20068;-78
2024/03/01 00:43:02;;;;;;;31.80;3.85;;;;;;;;;;5013941;28;20125;-78
2024/03/01 00:45:28;;;;;;;25.75;3.78;;;;;;;;;;5013570;28;20524;-78
2024/03/01 00:47:55;;;;;;;25.27;4.22;;;;;;;;;;5012643;28;20495;-78
2024/03/01 00:50:23;;;;;;;29.58;2.90;;;;;;;;;;5013448;28;20069;-78
2024/03/01 00:52:50;;;;;;;24.98;3.90;;;;;;;;;;5012654;28;20129;-78
2024/03/01 00:55:17;;;;;;;16.77;3.33;;;;;;;;;;5013214;28;20061;-77
2024/03/01 00:57:44;;;;;;;24.05;3.50;;;;;;;;;;5012217;28;20056;-78
2024/03/01 01:00:11;;;;;;;19.80;2.95;;;;;;;;;;5013200;28;20050;-77
2024/03/01 01:02:38;;;;;;;17.58;3.15;;;;;;;;;;5013903;28;20061;-78
2024/03/01 01:05:09;;;;;;;28.73;3.42;;;;;;;;;;5013187;28;20049;-77
2024/03/01 01:07:36;;;;;;;27.45;3.92;;;;;;;;;;5013484;28;20062;-78
2024/03/01 01:10:04;;;;;;;23.45;3.35;;;;;;;;;;4995867;28;20042;-78
2024/03/01 01:12:31;;;;;;;27.38;3.20;;;;;;;;;;5011844;28;20053;-77
2024/03/01 01:14:58;;;;;;;19.95;2.85;;;;;;;;;;5013209;28;20455;-78
2024/03/01 01:17:26;;;;;;;18.35;3.05;;;;;;;;;;5013027;28;20038;-78
2024/03/01 01:19:58;;;;;;;29.73;3.65;;;;;;;;;;5011448;28;20052;-77
2024/03/01 01:22:26;;;;;;;12.23;2.65;;;;;;;;;;4995230;28;20046;-78
2024/03/01 01:24:53;;;;;;;;;;;;;;;;;;5008021;28;20133;-77
2024/03/01 01:27:20;;;;;;;29.35;3.38;;;;;;;;;;4975888;28;20020;-77
2024/03/01 01:29:47;;;;;;;25.63;3.92;;;;;;;;;;4993537;28;20050;-78
2024/03/01 01:32:14;;;;;;;25.88;4.15;;;;;;;;;;4993008;28;20046;-78
2024/03/01 01:34:40;;;;;;;41.58;5.00;;;;;;;;;;5008199;28;20054;-77
2024/03/01 01:37:07;;;;;;;36.45;4.40;;;;;;;;;;5011427;28;20042;-77
2024/03/01 01:39:34;;;;;;;43.58;5.70;;;;;;;;;;5011777;28;20045;-77
2024/03/01 01:42:01;;;;;;;33.75;4.80;;;;;;;;;;5011731;28;20508;-78
2024/03/01 01:44:27;;;;;;;36.33;4.43;;;;;;;;;;5011302;28;20038;-78
2024/03/01 01:46:54;;;;;;;35.10;5.22;;;;;;;;;;5012978;28;20049;-77
2024/03/01 01:49:25;;;;;;;43.67;5.03;;;;;;;;;;5011294;28;20042;-77
2024/03/01 01:51:53;;;;;;;43.95;5.35;;;;;;;;;;5012980;28;20479;-77
2024/03/01 01:54:20;;;;;;;36.03;4.63;;;;;;;;;;5012345;28;20491;-78
2024/03/01 01:56:47;;;;;;;41.58;4.60;;;;;;;;;;5012947;28;20053;-78
2024/03/01 01:59:14;;;;;;;33.35;4.78;;;;;;;;;;5012333;28;20048;-77
2024/03/01 02:01:41;;;;;;;35.50;4.43;;;;;;;;;;5012298;28;20104;-77
2024/03/01 02:04:08;;;;;;;33.03;4.38;;;;;;;;;;5012336;28;20038;-77
2024/03/01 02:06:35;;;;;;;44.05;5.63;;;;;;;;;;5011578;28;20092;-77
2024/03/01 02:09:12;;;;;;;40.42;5.75;;;;;;;;;;5012554;28;20044;-77
2024/03/01 02:11:39;;;;;;;32.40;4.68;;;;;;;;;;5011338;28;20133;-78
2024/03/01 02:14:06;;;;;;;37.47;4.43;;;;;;;;;;5012359;28;20045;-78
2024/03/01 02:16:33;;;;;;;36.55;5.35;;;;;;;;;;5012836;28;20054;-78
2024/03/01 02:19:00;;;;;;;30.85;4.50;;;;;;;;;;5011533;28;20054;-77
2024/03/01 02:21:34;;;;;;;38.83;4.05;;;;;;;;;;5012254;28;20084;-78
2024/03/01 02:24:03;;;;;;;31.95;3.78;;;;;;;;;;5012726;28;20491;-78
2024/03/01 02:26:31;;;;;;;31.90;4.15;;;;;;;;;;4993827;28;20054;-77
2024/03/01 02:28:58;;;;;;;39.23;4.30;;;;;;;;;;4993030;28;20389;-78
2024/03/01 02:31:25;;;;;;;38.00;4.75;;;;;;;;;;4994607;28;20042;-78
2024/03/01 02:33:52;;;;;;;37.88;4.68;;;;;;;;;;4999786;28;20042;-77
2024/03/01 02:36:19;;;;;;;39.13;4.03;;;;;;;;;;5030958;28;20116;-78
2024/03/01 02:38:45;;;;;;;36.08;4.97;;;;;;;;;;5031335;28;20053;-78
2024/03/01 02:41:12;;;;;;;42.88;5.15;;;;;;;;;;5015538;28;20045;-78
2024/03/01 02:43:39;;;;;;;52.75;4.25;;;;;;;;;;5016019;28;20073;-78
2024/03/01 02:46:05;;;;;;;37.38;4.90;;;;;;;;;;5014393;28;20050;-75
2024/03/01 02:48:32;;;;;;;35.60;4.38;;;;;;;;;;5016220;28;20053;-75
2024/03/01 02:50:59;;;;;;;29.35;4.32;;;;;;;;;;5014632;28;20141;-78
2024/03/01 02:53:26;;;;;;;38.25;5.03;;;;;;;;;;5015421;28;20045;-77
2024/03/01 02:55:52;;;;;;;39.13;6.35;;;;;;;;;;5015838;28;20679;-77
2024/03/01 02:58:19;;;;;;;39.58;4.78;;;;;;;;;;5015382;28;20096;-78
2024/03/01 03:00:46;;;;;;;41.33;6.40;;;;;;;;;;5015757;28;20046;-78
2024/03/01 03:03:13;;;;;;;36.08;4.32;;;;;;;;;;5015416;28;20503;-78
2024/03/01 03:05:39;;;;;;;39.72;4.65;;;;;;;;;;5014388;28;20558;-78
2024/03/01 03:08:06;;;;;;;40.22;6.57;;;;;;;;;;5013711;28;20384;-78
2024/03/01 03:10:33;;;;;;;33.45;4.80;;;;;;;;;;5015690;28;20169;-78
2024/03/01 03:13:02;;;;;;;32.45;5.32;;;;;;;;;;5015552;28;20046;-78
2024/03/01 03:15:28;;;;;;;43.50;5.60;;;;;;;;;;5014016;28;20049;-78
2024/03/01 03:17:55;;;;;;;20.40;3.40;;;;;;;;;;5015574;28;20046;-78
2024/03/01 03:20:22;;;;;;;24.70;3.47;;;;;;;;;;5015036;28;20045;-78
2024/03/01 03:22:48;;;;;;;30.75;4.22;;;;;;;;;;5014102;28;20050;-78
2024/03/01 03:25:15;;;;;;;23.48;3.67;;;;;;;;;;5007681;28;20043;-78
2024/03/01 03:27:42;;;;;;;34.10;4.55;;;;;;;;;;4995687;28;20054;-77
2024/03/01 03:30:10;;;;;;;29.88;4.40;;;;;;;;;;4994083;28;20104;-77
2024/03/01 03:32:37;;;;;;;39.90;5.97;;;;;;;;;;4978264;28;20126;-78
2024/03/01 03:35:04;;;;;;;41.70;6.07;;;;;;;;;;5007916;28;20054;-78
2024/03/01 03:37:32;;;;;;;47.95;5.10;;;;;;;;;;5013793;28;20428;-77
2024/03/01 03:39:59;;;;;;;45.22;6.30;;;;;;;;;;5015058;28;20049;-78
2024/03/01 03:42:26;;;;;;;46.63;5.95;;;;;;;;;;5012781;28;20072;-77
2024/03/01 03:44:53;;;;;;;54.88;6.22;;;;;;;;;;5013693;28;20104;-78
2024/03/01 03:47:20;;;;;;;46.83;6.22;;;;;;;;;;5013396;28;20045;-78
2024/03/01 03:49:47;;;;;;;63.13;7.13;;;;;;;;;;5013627;28;20046;-78
2024/03/01 03:52:14;;;;;;;56.78;6.97;;;;;;;;;;5014307;28;20045;-78
2024/03/01 03:54:42;;;;;;;72.50;8.23;;;;;;;;;;5014899;28;20048;-78
2024/03/01 03:57:09;;;;;;;56.90;6.72;;;;;;;;;;5014268;28;20042;-78
2024/03/01 03:59:36;;;;;;;57.55;6.47;;;;;;;;;;5014795;28;20046;-78
2024/03/01 04:02:03;;;;;;;48.67;7.30;;;;;;;;;;5014632;28;20042;-77
2024/03/01 04:04:30;;;;;;;37.65;5.55;;;;;;;;;;5014562;28;20054;-78
2024/03/01 04:06:57;;;;;;;36.25;4.53;;;;;;;;;;5013223;28;20377;-78
2024/03/01 04:09:25;;;;;;;40.93;5.13;;;;;;;;;;5013938;28;20507;-78
2024/03/01 04:11:52;;;;;;;43.58;4.55;;;;;;;;;;5014632;28;20135;-78
2024/03/01 04:14:19;;;;;;;45.33;5.93;;;;;;;;;;5014074;28;20468;-78
2024/03/01 04:16:46;;;;;;;37.40;4.45;;;;;;;;;;5014362;28;20485;-78
2024/03/01 04:19:13;;;;;;;32.40;4.97;;;;;;;;;;5012472;28;20104;-77
2024/03/01 04:21:41;;;;;;;30.27;4.93;;;;;;;;;;5012785;28;20546;-78
2024/03/01 04:24:12;;;;;;;38.80;4.80;;;;;;;;;;5012696;28;20469;-78
2024/03/01 04:26:39;;;;;;;41.17;4.55;;;;;;;;;;4995623;28;20065;-77
2024/03/01 04:29:06;;;;;;;45.08;5.55;;;;;;;;;;4994153;28;20119;-78
2024/03/01 04:31:33;;;;;;;36.70;4.88;;;;;;;;;;4977098;28;20050;-77
2024/03/01 04:34:00;;;;;;;43.72;4.80;;;;;;;;;;4998420;28;20070;-77
2024/03/01 04:36:27;;;;;;;41.55;4.95;;;;;;;;;;5012369;28;20556;-78
2024/03/01 04:38:54;;;;;;;37.42;5.38;;;;;;;;;;5029147;28;20137;-78
2024/03/01 04:41:21;;;;;;;38.83;5.18;;;;;;;;;;5012196;28;20046;-78
2024/03/01 04:43:48;;;;;;;45.78;4.47;;;;;;;;;;5012560;28;20050;-77
2024/03/01 04:46:15;;;;;;;38.90;4.13;;;;;;;;;;5013349;28;20052;-78
2024/03/01 04:48:42;;;;;;;27.42;4.13;;;;;;;;;;5012680;28;20428;-78
2024/03/01 04:51:10;;;;;;;32.22;4.03;;;;;;;;;;5013425;28;20487;-77
2024/03/01 04:53:36;;;;;;;39.90;4.55;;;;;;;;;;5012976;28;20388;-77
2024/03/01 04:56:04;;;;;;;40.75;3.78;;;;;;;;;;5013698;28;20054;-77
2024/03/01 04:58:31;;;;;;;30.17;3.93;;;;;;;;;;5013539;28;20050;-78
2024/03/01 05:01:00;;;;;;;25.48;4.30;;;;;;;;;;5012790;28;20048;-77
2024/03/01 05:03:30;;;;;;;39.97;4.50;;;;;;;;;;5013127;28;20411;-77
2024/03/01 05:05:57;;;;;;;35.58;4.13;;;;;;;;;;5013557;28;20053;-77
2024/03/01 05:08:25;;;;;;;23.35;2.78;;;;;;;;;;5012729;28;20060;-77
2024/03/01 05:10:52;;;;;;;26.65;3.55;;;;;;;;;;5013562;28;20049;-78
2024/03/01 05:13:20;;;;;;;19.05;2.65;;;;;;;;;;5013139;28;20046;-78
2024/03/01 05:15:48;;;;;;;14.32;2.10;;;;;;;;;;5012195;28;20042;-78
2024/03/01 05:18:14;;;;;;;12.00;2.00;;;;;;;;;;5012977;28;20384;-77
2024/03/01 05:20:44;;;;;;;16.52;1.67;;;;;;;;;;5013466;28;20105;-77
2024/03/01 05:23:10;;;;;;;14.85;2.20;;;;;;;;;;5012790;28;20041;-77
2024/03/01 05:25:42;;;;;;;22.27;2.40;;;;;;;;;;5001827;28;20467;-77
2024/03/01 05:28:09;;;;;;;9.07;1.63;;;;;;;;;;4992061;28;20414;-78
2024/03/01 05:30:36;;;;;;;10.82;2.00;;;;;;;;;;4976363;28;20046;-78
2024/03/01 05:33:17;;;;;;;23.55;2.58;;;;;;;;;;4992795;28;20046;-77
2024/03/01 05:35:44;;;;;;;11.60;1.63;;;;;;;;;;5011432;28;20042;-77
2024/03/01 05:38:11;;;;;;;15.93;2.20;;;;;;;;;;5011297;28;20046;-77
2024/03/01 05:40:37;;;;;;;16.30;2.15;;;;;;;;;;5013015;28;20048;-77
2024/03/01 05:43:21;;;;;;;13.77;1.70;;;;;;;;;;5012685;28;20056;-77
2024/03/01 05:45:50;;;;;;;13.35;1.42;;;;;;;;;;5013069;28;20042;-77
2024/03/01 05:48:17;;;;;;;11.57;1.67;;;;;;;;;;5011097;28;20045;-77
2024/03/01 05:50:44;;;;;;;10.48;1.73;;;;;;;;;;5012886;28;20050;-77
2024/03/01 05:53:14;;;;;;;9.18;1.52;;;;;;;;;;5012443;28;20045;-77
2024/03/01 05:55:43;;;;;;;15.13;2.03;;;;;;;;;;5011727;28;20457;-78
2024/03/01 05:58:10;;;;;;;9.25;1.25;;;;;;;;;;4994846;28;20056;-78
2024/03/01 06:00:41;;;;;;;10.05;1.65;;;;;;;;;;4995605;28;20125;-77
2024/03/01 06:03:08;;;;;;;18.83;2.00;;;;;;;;;;5011139;28;20057;-77
2024/03/01 06:05:36;;;;;;;19.67;2.28;;;;;;;;;;4997303;28;20495;-78
2024/03/01 06:08:03;;;;;;;11.73;2.03;;;;;;;;;;5016649;28;20137;-78
2024/03/01 06:10:29;;;;;;;17.73;2.45;;;;;;;;;;5015362;28;20108;-78
2024/03/01 06:12:57;;;;;;;17.70;3.00;;;;;;;;;;5016587;28;20169;-79
2024/03/01 06:15:26;;;;;;;20.88;3.22;;;;;;;;;;4998888;28;20058;-78
2024/03/01 06:17:53;;;;;;;25.45;2.65;;;;;;;;;;5015387;28;20046;-78
2024/03/01 06:20:20;;;;;;;17.08;2.75;;;;;;;;;;5013255;28;20049;-78
2024/03/01 06:22:46;;;;;;;15.82;2.78;;;;;;;;;;5014874;28;20053;-78
2024/03/01 06:25:13;;;;;;;17.10;3.17;;;;;;;;;;5011715;28;20038;-78
2024/03/01 06:27:40;;;;;;;22.95;3.13;;;;;;;;;;5016477;28;20119;-78
2024/03/01 06:30:07;;;;;;;21.67;3.70;;;;;;;;;;5014626;28;20046;-77
2024/03/01 06:32:34;;;;;;;19.13;2.60;;;;;;;;;;5014880;28;20104;-77
2024/03/01 06:35:01;;;;;;;20.70;2.88;;;;;;;;;;5014950;28;20497;-77
2024/03/01 06:37:28;;;;;;;15.77;2.33;;;;;;;;;;5015876;28;20042;-78
2024/03/01 06:39:55;;;;;;;19.63;3.33;;;;;;;;;;5014745;28;20042;-78
2024/03/01 06:42:22;;;;;;;21.10;2.78;;;;;;;;;;5015688;28;20140;-77
2024/03/01 06:44:49;;;;;;;15.43;2.53;;;;;;;;;;5016030;28;20042;-77
2024/03/01 06:47:15;;;;;;;22.15;2.80;;;;;;;;;;5015747;28;20041;-77
2024/03/01 06:49:47;;;;;;;20.00;3.15;;;;;;;;;;5014790;28;20057;-77
2024/03/01 06:52:14;;;;;;;19.48;2.95;;;;;;;;;;5014184;28;20473;-79
2024/03/01 06:54:45;;;;;;;18.38;2.92;;;;;;;;;;5014700;28;20046;-77
2024/03/01 06:57:12;;;;;;;22.40;3.30;;;;;;;;;;4997516;28;20050;-80
2024/03/01 06:59:39;;;;;;;26.33;3.53;;;;;;;;;;4998619;28;20133;-78
2024/03/01 07:02:06;;;;;;;25.23;3.72;;;;;;;;;;5015345;28;20481;-77
2024/03/01 07:04:33;;;;;;;29.33;3.35;;;;;;;;;;5014645;28;20041;-77
2024/03/01 07:07:00;;;;;;;28.77;3.50;;;;;;;;;;5015965;28;20060;-77
2024/03/01 07:09:27;;;;;;;22.90;4.03;;;;;;;;;;5015315;28;20049;-77
2024/03/01 07:11:54;;;;;;;29.08;3.80;;;;;;;;;;5014704;28;20129;-77
2024/03/01 07:14:21;;;;;;;23.25;3.45;;;;;;;;;;5015454;28;20046;-78
2024/03/01 07:16:47;;;;;;;14.60;2.55;;;;;;;;;;5013758;28;20052;-77
2024/03/01 07:19:14;;;;;;;14.20;2.20;;;;;;;;;;4997919;28;20070;-77
2024/03/01 07:21:41;;;;;;;18.27;2.72;;;;;;;;;;5015574;28;20054;-77
2024/03/01 07:24:07;;;;;;;16.70;2.67;;;;;;;;;;5015331;28;20053;-78
2024/03/01 07:26:34;;;;;;;19.67;2.47;;;;;;;;;;4997624;28;20053;-77
2024/03/01 07:29:02;;;;;;;13.35;2.70;;;;;;;;;;4994719;28;20047;-77
2024/03/01 07:31:29;;;;;;;16.95;2.38;;;;;;;;;;4995758;28;20047;-78
2024/03/01 07:33:55;;;;;;;15.95;2.40;;;;;;;;;;4981618;28;20066;-77
2024/03/01 07:36:22;;;;;;;13.60;2.85;;;;;;;;;;5013674;28;20084;-77
2024/03/01 07:38:49;;;;;;;17.30;2.70;;;;;;;;;;5015328;28;20429;-77
2024/03/01 07:41:18;;;;;;;18.48;2.03;;;;;;;;;;5011957;28;20042;-77
2024/03/01 07:43:46;;;;;;;16.38;3.20;;;;;;;;;;5014686;28;20049;-77
2024/03/01 07:46:13;;;;;;;13.43;1.80;;;;;;;;;;4996120;28;20444;-78
2024/03/01 07:48:44;;;;;;;16.05;2.67;;;;;;;;;;5013652;28;20045;-77
2024/03/01 07:51:13;;;;;;;20.23;2.58;;;;;;;;;;5011989;28;20049;-77
2024/03/01 07:53:41;;;;;;;18.38;3.05;;;;;;;;;;5012096;28;20511;-78
2024/03/01 07:56:07;;;;;;;18.15;3.15;;;;;;;;;;4995596;28;20060;-78
2024/03/01 07:58:34;;;;;;;21.73;4.25;;;;;;;;;;5011949;28;20048;-77
2024/03/01 08:01:02;;;;;;;28.40;4.13;;;;;;;;;;5011771;28;20058;-77
2024/03/01 08:03:30;;;;;;;19.98;3.08;;;;;;;;;;5012031;28;20500;-77
2024/03/01 08:05:56;;;;;;;27.30;4.05;;;;;;;;;;5011385;28;20053;-77
2024/03/01 08:08:40;;;;;;;39.75;4.75;;;;;;;;;;5012143;28;20046;-77
2024/03/01 08:11:09;;;;;;;39.80;5.18;;;;;;;;;;5004068;28;20364;-77
2024/03/01 08:13:36;;;;;;;32.95;3.70;;;;;;;;;;5000826;28;20061;-78
2024/03/01 08:16:09;;;;;;;23.83;3.57;;;;;;;;;;5010070;28;20042;-78
2024/03/01 08:18:38;;;;;;;33.30;5.03;;;;;;;;;;5010929;28;20038;-78
2024/03/01 08:21:08;;;;;;;24.17;4.00;;;;;;;;;;5010584;28;20141;-77
2024/03/01 08:23:40;;;;;;;31.10;4.25;;;;;;;;;;5011091;28;20084;-78
2024/03/01 08:26:23;;;;;;;33.53;4.03;;;;;;;;;;5014846;28;20450;-77
2024/03/01 08:28:50;;;;;;;24.75;3.88;;;;;;;;;;5011704;28;20038;-77
2024/03/01 08:31:35;;;;;;;27.60;4.20;;;;;;;;;;5010577;28;20132;-77
2024/03/01 08:34:17;;;;;;;37.05;4.13;;;;;;;;;;5010895;28;20052;-78
2024/03/01 08:36:44;;;;;;;33.58;5.28;;;;;;;;;;5010025;28;20045;-77
2024/03/01 08:39:16;;;;;;;30.83;4.28;;;;;;;;;;5011555;28;20129;-78
2024/03/01 08:41:55;;;;;;;28.95;4.75;;;;;;;;;;5009800;28;20053;-77
2024/03/01 08:44:49;;;;;;;41.30;4.25;;;;;;;;;;5008076;28;20045;-77
2024/03/01 08:47:25;;;;;;;37.42;4.60;;;;;;;;;;4989703;28;20416;-78
2024/03/01 08:49:51;;;;;;;37.08;3.90;;;;;;;;;;5010393;28;20128;-78
2024/03/01 08:52:31;;;;;;;35.70;5.25;;;;;;;;;;5011567;28;20060;-78
2024/03/01 08:55:18;;;;;;;26.95;3.83;;;;;;;;;;5011771;28;20092;-78
2024/03/01 08:57:46;;;;;;;35.38;5.88;;;;;;;;;;5007052;28;20504;-78
2024/03/01 09:00:38;;;;;;;29.45;4.70;;;;;;;;;;5010583;28;20077;-77
2024/03/01 09:03:09;;;;;;;27.98;4.93;;;;;;;;;;5009661;28;20034;-77
2024/03/01 09:05:40;;;;;;;39.38;5.40;;;;;;;;;;5010758;28;20104;-78
2024/03/01 09:08:11;;;;;;;39.20;4.32;;;;;;;;;;5010621;28;20085;-78
2024/03/01 09:10:37;;;;;;;32.33;4.85;;;;;;;;;;5013111;28;20050;-78
2024/03/01 09:13:05;;;;;;;40.47;4.68;;;;;;;;;;5022015;28;20053;-78
2024/03/01 09:15:39;;;;;;;27.25;3.92;;;;;;;;;;5011716;28;20065;-78
2024/03/01 09:18:17;;;;;;;38.95;4.57;;;;;;;;;;5001463;28;20042;-78
2024/03/01 09:20:44;;;;;;;33.35;4.20;;;;;;;;;;5013480;28;20108;-78
2024/03/01 09:23:15;;;;;;;23.95;4.13;;;;;;;;;;5011303;28;20046;-78
2024/03/01 09:25:48;;;;;;;24.67;4.43;;;;;;;;;;5010037;28;20050;-82
2024/03/01 09:28:18;;;;;;;23.48;4.25;;;;;;;;;;5011935;28;20563;-78
2024/03/01 09:30:47;;;;;;;38.92;5.55;;;;;;;;;;5013182;28;20054;-79
2024/03/01 09:33:16;;;;;;;25.10;4.05;;;;;;;;;;5011938;28;20045;-82
2024/03/01 09:35:50;;;;;;;38.75;5.05;;;;;;;;;;4980110;28;20053;-79
2024/03/01 09:38:19;;;;;;;23.05;3.03;;;;;;;;;;5012921;28;20125;-79
2024/03/01 09:40:53;;;;;;;23.65;3.70;;;;;;;;;;5009711;28;20050;-78
2024/03/01 09:43:35;;;;;;;24.83;3.10;;;;;;;;;;5010763;28;20045;-79
2024/03/01 09:46:44;;;;;;;22.80;3.25;;;;;;;;;;5011818;28;20045;-78
2024/03/01 09:49:36;;;;;;;26.45;4.35;;;;;;;;;;4968473;28;20424;-78
2024/03/01 09:52:36;;;;;;;18.48;3.70;;;;;;;;;;4963062;28;20074;-77
2024/03/01 09:55:19;;;;;;;19.58;2.63;;;;;;;;;;4968183;28;20078;-78
2024/03/01 09:58:10;;;;;;;19.02;2.95;;;;;;;;;;4970789;28;20066;-79
2024/03/01 10:00:44;;;;;;;14.77;3.10;;;;;;;;;;4953508;28;20054;-79
2024/03/01 10:03:28;;;;;;;19.40;2.42;;;;;;;;;;4957384;28;20125;-78
2024/03/01 10:05:55;;;;;;;20.20;3.70;;;;;;;;;;4948896;29;20055;-78
2024/03/01 10:08:46;;;;;;;23.33;3.03;;;;;;;;;;4951693;29;20094;-78
2024/03/01 10:11:36;;;;;;;21.77;2.88;;;;;;;;;;4958330;28;20486;-79
2024/03/01 10:14:22;;;;;;;19.38;2.38;;;;;;;;;;4955862;28;20039;-78
2024/03/01 10:17:11;;;;;;;17.98;3.47;;;;;;;;;;4970131;28;20062;-82
2024/03/01 10:20:14;;;;;;;17.98;2.95;;;;;;;;;;4952454;28;20046;-79
2024/03/01 10:22:55;;;;;;;19.98;3.33;;;;;;;;;;4970013;28;20050;-78
2024/03/01 10:25:42;;;;;;;20.23;2.97;;;;;;;;;;5005758;28;20038;-79
2024/03/01 10:28:33;;;;;;;16.17;2.85;;;;;;;;;;5024842;28;20073;-78
2024/03/01 10:31:16;;;;;;;29.73;4.55;;;;;;;;;;5022036;28;20085;-79
2024/03/01 10:33:57;;;;;;;29.75;4.43;;;;;;;;;;5012876;28;20481;-79
2024/03/01 10:36:42;;;;;;;25.52;3.15;;;;;;;;;;5011486;28;20050;-79
2024/03/01 10:39:15;;;;;;;23.83;3.15;;;;;;;;;;5010542;28;20050;-83
2024/03/01 10:42:07;;;;;;;17.33;2.80;;;;;;;;;;4985876;28;20104;-81
2024/03/01 10:44:46;;;;;;;5.40;1.42;;;;;;;;;;5010324;28;20046;-78
2024/03/01 10:47:22;;;;;;;4.60;0.98;;;;;;;;;;5009934;28;20165;-78
2024/03/01 10:50:21;;;;;;;9.82;1.45;;;;;;;;;;5016025;28;20141;-77
2024/03/01 10:52:55;;;;;;;8.02;1.30;;;;;;;;;;5012149;28;20042;-78
2024/03/01 10:55:24;;;;;;;10.65;1.40;;;;;;;;;;5015744;28;20052;-78
2024/03/01 10:58:04;;;;;;;13.13;1.33;;;;;;;;;;5014615;28;20049;-79
2024/03/01 11:00:32;;;;;;;;;;;;;;;;;;5012476;28;20049;-84
2024/03/01 11:03:35;;;;;;;7.18;0.88;;;;;;;;;;4998230;28;20422;-77
2024/03/01 11:06:27;;;;;;;7.28;1.23;;;;;;;;;;5014297;28;20056;-78
2024/03/01 11:09:10;;;;;;;5.53;1.02;;;;;;;;;;5011598;28;20041;-78
2024/03/01 11:11:38;;;;;;;13.27;1.17;;;;;;;;;;5013632;28;20108;-77
2024/03/01 11:14:09;;;;;;;8.23;1.00;;;;;;;;;;5013424;28;20120;-78
2024/03/01 11:16:40;;;;;;;5.90;1.00;;;;;;;;;;5014759;28;20117;-77
2024/03/01 11:19:12;;;;;;;5.78;1.13;;;;;;;;;;4997364;28;20049;-78
2024/03/01 11:21:43;;;;;;;8.45;1.15;;;;;;;;;;5015096;28;20053;-78
2024/03/01 11:24:19;;;;;;;10.15;1.67;;;;;;;;;;5013404;28;20065;-78
2024/03/01 11:26:49;;;;;;;12.93;2.25;;;;;;;;;;5000313;28;20049;-78
2024/03/01 11:29:44;;;;;;;13.45;2.20;;;;;;;;;;5024437;28;20380;-79
2024/03/01 11:32:20;;;;;;;12.20;1.98;;;;;;;;;;5010647;28;20046;-77
2024/03/01 11:35:05;;;;;;;12.00;2.08;;;;;;;;;;5010094;28;20464;-79
2024/03/01 11:38:02;;;;;;;22.52;2.05;;;;;;;;;;5013932;28;20136;-79
2024/03/01 11:40:50;;;;;;;9.55;1.60;;;;;;;;;;5011830;28;20376;-78
2024/03/01 11:43:39;;;;;;;12.88;3.25;;;;;;;;;;5012911;28;20361;-80
2024/03/01 11:46:30;;;;;;;13.20;1.73;;;;;;;;;;5010348;28;20472;-80
2024/03/01 11:49:16;;;;;;;9.57;1.40;;;;;;;;;;5013105;28;20034;-78
2024/03/01 11:52:14;;;;;;;10.15;2.00;;;;;;;;;;5010598;28;20045;-78
2024/03/01 11:54:53;;;;;;;17.42;2.70;;;;;;;;;;5013855;28;20117;-79
2024/03/01 11:57:37;;;;;;;12.15;1.85;;;;;;;;;;5013289;28;20045;-78
2024/03/01 12:00:47;;;;;;;13.48;1.90;;;;;;;;;;5014875;28;20052;-79
2024/03/01 12:03:42;;;;;;;13.40;1.77;;;;;;;;;;5013162;28;20042;-80
2024/03/01 12:06:51;;;;;;;10.48;1.65;;;;;;;;;;5014441;28;20049;-80
2024/03/01 12:09:34;;;;;;;11.63;1.70;;;;;;;;;;5012981;28;20042;-80
2024/03/01 12:12:24;;;;;;;20.08;2.00;;;;;;;;;;5013646;28;20073;-79
2024/03/01 12:15:04;;;;;;;22.00;3.83;;;;;;;;;;5014409;28;20045;-78
2024/03/01 12:17:42;;;;;;;28.25;2.80;;;;;;;;;;5013256;28;20046;-80
2024/03/01 12:20:13;;;;;;;32.55;3.25;;;;;;;;;;5014182;28;20034;-79
2024/03/01 12:23:02;;;;;;;22.98;3.83;;;;;;;;;;5013723;28;20121;-79
2024/03/01 12:25:29;;;;;;;18.75;3.83;;;;;;;;;;5011892;28;20504;-79
2024/03/01 12:28:10;;;;;;;23.30;3.53;;;;;;;;;;4996525;28;20042;-79
2024/03/01 12:30:37;;;;;;;31.17;4.28;;;;;;;;;;5012174;28;20415;-79
2024/03/01 12:33:38;;;;;;;24.10;3.10;;;;;;;;;;5013048;28;20056;-83
2024/03/01 12:36:24;;;;;;;25.58;3.08;;;;;;;;;;4976458;28;20050;-83
2024/03/01 12:39:05;;;;;;;17.23;2.75;;;;;;;;;;4987367;28;20376;-78
2024/03/01 12:42:05;;;;;;;16.05;2.03;;;;;;;;;;5027193;28;20408;-78
2024/03/01 12:44:53;;;;;;;9.38;1.40;;;;;;;;;;5012442;28;20046;-78
2024/03/01 12:47:39;;;;;;;;;;;;;;;;;;5011931;28;20384;-79
2024/03/01 12:50:39;;;;;;;10.70;1.40;;;;;;;;;;5012115;28;19971;-78
2024/03/01 12:53:49;;;;;;;8.95;1.50;;;;;;;;;;5012152;28;20062;-78
2024/03/01 12:56:35;;;;;;;12.02;1.65;;;;;;;;;;5011150;28;20042;-78
2024/03/01 12:59:17;;;;;;;17.55;1.75;;;;;;;;;;5012500;28;20053;-78
2024/03/01 13:01:56;;;;;;;17.35;2.13;;;;;;;;;;5012249;28;20045;-79
2024/03/01 13:04:41;;;;;;;19.55;2.40;;;;;;;;;;5012591;28;20450;-78
2024/03/01 13:07:09;;;;;;;16.80;2.00;;;;;;;;;;5013270;28;20042;-79
2024/03/01 13:09:45;;;;;;;10.40;2.80;;;;;;;;;;5012159;28;20050;-79
2024/03/01 13:12:24;;;;;;;16.45;2.72;;;;;;;;;;5011555;28;20046;-78
2024/03/01 13:14:58;;;;;;;13.13;2.20;;;;;;;;;;4995635;28;20053;-78
2024/03/01 13:17:40;;;;;;;13.05;2.22;;;;;;;;;;5011402;28;20448;-78
2024/03/01 13:20:28;;;;;;;19.17;2.30;;;;;;;;;;5011581;28;20380;-79
2024/03/01 13:23:24;;;;;;;11.13;1.92;;;;;;;;;;5013443;28;20054;-79
2024/03/01 13:26:20;;;;;;;10.73;2.00;;;;;;;;;;4971361;28;20047;-78
2024/03/01 13:29:16;;;;;;;11.15;1.80;;;;;;;;;;4942857;29;20054;-78
2024/03/01 13:32:07;;;;;;;20.17;1.67;;;;;;;;;;4949214;28;20046;-78
2024/03/01 13:34:45;;;;;;;10.35;1.63;;;;;;;;;;4948898;28;20102;-78
2024/03/01 13:37:18;;;;;;;5.72;1.17;;;;;;;;;;4963801;28;20537;-79
2024/03/01 13:39:52;;;;;;;13.00;1.50;;;;;;;;;;4938635;28;20083;-79
2024/03/01 13:42:32;;;;;;;15.05;1.88;;;;;;;;;;4971465;28;20049;-79
2024/03/01 13:45:12;;;;;;;16.38;1.55;;;;;;;;;;4951360;28;20039;-79
2024/03/01 13:47:47;;;;;;;10.38;1.48;;;;;;;;;;4971444;28;20065;-78
2024/03/01 13:50:33;;;;;;;15.05;2.78;;;;;;;;;;4954153;28;20050;-78
2024/03/01 13:53:01;;;;;;;16.00;2.75;;;;;;;;;;4952984;28;20039;-78
2024/03/01 13:55:29;;;;;;;;;;;;;;;;;;4963594;28;20047;-79
2024/03/01 13:57:57;;;;;;;19.13;2.20;;;;;;;;;;4960593;28;20005;-79
2024/03/01 14:00:24;;;;;;;18.10;2.65;;;;;;;;;;4961368;28;20035;-78
2024/03/01 14:02:52;;;;;;;12.35;2.30;;;;;;;;;;4974796;28;20097;-78
2024/03/01 14:05:29;;;;;;;20.27;2.63;;;;;;;;;;5012382;28;20053;-78
2024/03/01 14:07:58;;;;;;;12.63;1.92;;;;;;;;;;5012884;28;20316;-78
2024/03/01 14:10:25;;;;;;;10.40;1.92;;;;;;;;;;4995033;28;20054;-78
2024/03/01 14:12:53;;;;;;;9.32;2.33;;;;;;;;;;5012865;28;20050;-78
2024/03/01 14:15:21;;;;;;;10.77;2.00;;;;;;;;;;4998211;28;20165;-78
2024/03/01 14:17:49;;;;;;;12.02;1.70;;;;;;;;;;4991914;28;20050;-78
2024/03/01 14:20:17;;;;;;;12.13;2.10;;;;;;;;;;4991270;28;20068;-78
2024/03/01 14:22:53;;;;;;;13.18;2.45;;;;;;;;;;5006162;28;20076;-78
2024/03/01 14:25:23;;;;;;;12.50;2.47;;;;;;;;;;5012705;28;20038;-77
2024/03/01 14:27:56;;;;;;;8.05;1.20;;;;;;;;;;5016909;28;20481;-78
2024/03/01 14:30:27;;;;;;;3.20;0.80;;;;;;;;;;4998531;28;20380;-78
2024/03/01 14:33:09;;;;;;;7.78;1.20;;;;;;;;;;5016764;28;20052;-78
2024/03/01 14:35:40;;;;;;;4.85;0.85;;;;;;;;;;5014458;28;20034;-78
2024/03/01 14:38:15;;;;;;;8.85;1.02;;;;;;;;;;5015596;28;20045;-78
2024/03/01 14:40:58;;;;;;;6.72;1.15;;;;;;;;;;5015529;28;20037;-78
2024/03/01 14:43:26;;;;;;;5.90;1.05;;;;;;;;;;5013194;28;20049;-77
2024/03/01 14:45:52;;;;;;;6.27;2.10;;;;;;;;;;5014578;28;20072;-78
2024/03/01 14:48:32;;;;;;;12.10;1.52;;;;;;;;;;5013806;28;20034;-78
2024/03/01 14:51:04;;;;;;;10.68;1.70;;;;;;;;;;5014710;28;20045;-78
2024/03/01 14:53:45;;;;;;;9.32;1.30;;;;;;;;;;5013797;28;20077;-78
2024/03/01 14:56:13;;;;;;;6.63;1.10;;;;;;;;;;4996200;28;20153;-78
2024/03/01 14:58:44;;;;;;;9.10;2.10;;;;;;;;;;4995266;28;20046;-77
2024/03/01 15:01:12;;;;;;;12.02;1.77;;;;;;;;;;4996306;28;20053;-78
2024/03/01 15:03:40;;;;;;;7.53;1.17;;;;;;;;;;5009843;28;20042;-78
2024/03/01 15:06:08;;;;;;;9.40;2.40;;;;;;;;;;5014619;28;20034;-78